sensor_id;sensor_type;location;lat;lon;timestamp;pressure;altitude;pressure_sealevel;temperature;humidity
3260;BME280;68938;48.150;14.004;2024-01-25T00:01:42;98930.53;;;11.27;57.93
3260;BME280;68938;48.150;14.004;2024-01-25T00:04:09;98939.13;;;11.26;58.66
3260;BME280;68938;48.150;14.004;2024-01-25T00:06:36;98920.84;;;11.40;57.71
3260;BME280;68938;48.150;14.004;2024-01-25T00:09:04;98927.22;;;11.21;58.73
3260;BME280;68938;48.150;14.004;2024-01-25T00:11:33;98927.22;;;11.21;58.59
3260;BME280;68938;48.150;14.004;2024-01-25T00:14:00;98938.38;;;11.20;59.10
3260;BME280;68938;48.150;14.004;2024-01-25T00:16:27;98944.41;;;11.19;59.46
3260;BME280;68938;48.150;14.004;2024-01-25T00:18:54;98929.06;;;11.57;58.20
3260;BME280;68938;48.150;14.004;2024-01-25T00:21:21;98933.25;;;11.61;57.41
3260;BME280;68938;48.150;14.004;2024-01-25T00:23:48;98916.75;;;11.72;57.47
3260;BME280;68938;48.150;14.004;2024-01-25T00:26:15;98931.84;;;11.47;58.03
3260;BME280;68938;48.150;14.004;2024-01-25T00:28:42;98924.09;;;11.50;58.12
3260;BME280;68938;48.150;14.004;2024-01-25T00:31:09;98924.28;;;11.79;57.20
3260;BME280;68938;48.150;14.004;2024-01-25T00:33:36;98933.34;;;11.57;57.32
3260;BME280;68938;48.150;14.004;2024-01-25T00:36:04;98932.28;;;11.67;57.26
3260;BME280;68938;48.150;14.004;2024-01-25T00:38:32;98937.66;;;11.55;57.98
3260;BME280;68938;48.150;14.004;2024-01-25T00:40:59;98931.75;;;11.51;57.66
3260;BME280;68938;48.150;14.004;2024-01-25T00:43:26;98934.25;;;11.56;57.71
3260;BME280;68938;48.150;14.004;2024-01-25T00:45:54;98931.91;;;11.44;57.99
3260;BME280;68938;48.150;14.004;2024-01-25T00:48:22;98926.94;;;11.34;58.16
3260;BME280;68938;48.150;14.004;2024-01-25T00:50:49;98929.00;;;11.19;57.73
3260;BME280;68938;48.150;14.004;2024-01-25T00:53:17;98930.97;;;11.48;57.61
3260;BME280;68938;48.150;14.004;2024-01-25T00:55:44;98921.97;;;11.27;58.07
3260;BME280;68938;48.150;14.004;2024-01-25T00:58:12;98934.91;;;11.22;58.11
3260;BME280;68938;48.150;14.004;2024-01-25T01:00:39;98924.25;;;11.42;57.02
3260;BME280;68938;48.150;14.004;2024-01-25T01:03:07;98932.84;;;11.39;57.33
3260;BME280;68938;48.150;14.004;2024-01-25T01:05:34;98938.00;;;11.38;56.98
3260;BME280;68938;48.150;14.004;2024-01-25T01:08:02;98943.31;;;11.30;56.88
3260;BME280;68938;48.150;14.004;2024-01-25T01:10:29;98936.09;;;11.48;56.75
3260;BME280;68938;48.150;14.004;2024-01-25T01:12:56;98934.25;;;11.56;56.16
3260;BME280;68938;48.150;14.004;2024-01-25T01:15:23;98941.94;;;11.56;56.20
3260;BME280;68938;48.150;14.004;2024-01-25T01:17:50;98924.53;;;11.28;57.14
3260;BME280;68938;48.150;14.004;2024-01-25T01:20:17;98936.44;;;11.31;57.20
3260;BME280;68938;48.150;14.004;2024-01-25T01:22:44;98931.28;;;11.32;56.54
3260;BME280;68938;48.150;14.004;2024-01-25T01:25:11;98934.59;;;11.37;56.68
3260;BME280;68938;48.150;14.004;2024-01-25T01:27:38;98939.03;;;11.71;55.75
3260;BME280;68938;48.150;14.004;2024-01-25T01:30:06;98931.63;;;11.57;56.17
3260;BME280;68938;48.150;14.004;2024-01-25T01:32:34;98941.06;;;11.57;56.02
3260;BME280;68938;48.150;14.004;2024-01-25T01:35:01;98928.59;;;11.38;56.38
3260;BME280;68938;48.150;14.004;2024-01-25T01:37:29;98943.75;;;11.07;56.88
3260;BME280;68938;48.150;14.004;2024-01-25T01:39:56;98940.38;;;11.05;57.44
3260;BME280;68938;48.150;14.004;2024-01-25T01:42:23;98917.69;;;11.27;56.87
3260;BME280;68938;48.150;14.004;2024-01-25T01:44:51;98934.59;;;11.37;56.40
3260;BME280;68938;48.150;14.004;2024-01-25T01:47:19;98926.56;;;11.11;57.05
3260;BME280;68938;48.150;14.004;2024-01-25T01:49:47;98933.41;;;11.12;57.01
3260;BME280;68938;48.150;14.004;2024-01-25T01:52:15;98925.75;;;11.09;57.71
3260;BME280;68938;48.150;14.004;2024-01-25T01:54:43;98919.47;;;11.24;57.02
3260;BME280;68938;48.150;14.004;2024-01-25T01:57:12;98918.34;;;11.37;57.00
3260;BME280;68938;48.150;14.004;2024-01-25T01:59:39;98912.56;;;11.68;55.56
3260;BME280;68938;48.150;14.004;2024-01-25T02:02:06;98911.41;;;11.42;56.37
3260;BME280;68938;48.150;14.004;2024-01-25T02:04:33;98903.81;;;11.36;56.85
3260;BME280;68938;48.150;14.004;2024-01-25T02:07:01;98904.28;;;11.13;57.27
3260;BME280;68938;48.150;14.004;2024-01-25T02:09:28;98897.53;;;11.07;58.02
3260;BME280;68938;48.150;14.004;2024-01-25T02:11:59;98900.25;;;11.00;57.88
3260;BME280;68938;48.150;14.004;2024-01-25T02:14:27;98909.19;;;11.25;57.46
3260;BME280;68938;48.150;14.004;2024-01-25T02:16:54;98909.97;;;11.27;56.93
3260;BME280;68938;48.150;14.004;2024-01-25T02:19:22;98913.59;;;11.17;57.47
3260;BME280;68938;48.150;14.004;2024-01-25T02:21:51;98903.31;;;11.19;57.50
3260;BME280;68938;48.150;14.004;2024-01-25T02:24:20;98888.72;;;11.21;57.52
3260;BME280;68938;48.150;14.004;2024-01-25T02:26:47;98893.03;;;11.19;57.84
3260;BME280;68938;48.150;14.004;2024-01-25T02:29:15;98899.69;;;10.85;58.09
3260;BME280;68938;48.150;14.004;2024-01-25T02:31:42;98897.94;;;10.86;58.11
3260;BME280;68938;48.150;14.004;2024-01-25T02:34:08;98900.19;;;11.03;57.84
3260;BME280;68938;48.150;14.004;2024-01-25T02:36:36;98897.28;;;10.76;57.79
3260;BME280;68938;48.150;14.004;2024-01-25T02:39:02;98902.47;;;11.18;56.92
3260;BME280;68938;48.150;14.004;2024-01-25T02:41:30;98903.09;;;11.29;56.24
3260;BME280;68938;48.150;14.004;2024-01-25T02:43:57;98905.22;;;11.09;56.62
3260;BME280;68938;48.150;14.004;2024-01-25T02:46:26;98905.84;;;11.20;56.62
3260;BME280;68938;48.150;14.004;2024-01-25T02:48:53;98898.09;;;11.23;56.39
3260;BME280;68938;48.150;14.004;2024-01-25T02:51:20;98900.59;;;11.26;56.37
3260;BME280;68938;48.150;14.004;2024-01-25T02:53:47;98897.78;;;10.95;57.12
3260;BME280;68938;48.150;14.004;2024-01-25T02:56:14;98888.66;;;11.24;56.64
3260;BME280;68938;48.150;14.004;2024-01-25T02:58:41;98883.91;;;11.05;57.10
3260;BME280;68938;48.150;14.004;2024-01-25T03:01:08;98886.69;;;11.35;57.08
3260;BME280;68938;48.150;14.004;2024-01-25T03:03:35;98876.56;;;11.29;56.92
3260;BME280;68938;48.150;14.004;2024-01-25T03:06:03;98865.75;;;11.13;57.21
3260;BME280;68938;48.150;14.004;2024-01-25T03:08:32;98872.16;;;11.34;57.02
3260;BME280;68938;48.150;14.004;2024-01-25T03:10:59;98873.63;;;11.05;58.07
3260;BME280;68938;48.150;14.004;2024-01-25T03:13:26;98871.22;;;10.98;58.38
3260;BME280;68938;48.150;14.004;2024-01-25T03:15:53;98866.59;;;11.13;57.93
3260;BME280;68938;48.150;14.004;2024-01-25T03:18:20;98854.19;;;11.35;57.02
3260;BME280;68938;48.150;14.004;2024-01-25T03:20:47;98858.94;;;11.52;56.50
3260;BME280;68938;48.150;14.004;2024-01-25T03:23:14;98862.59;;;11.42;56.48
3260;BME280;68938;48.150;14.004;2024-01-25T03:25:41;98860.84;;;11.01;57.82
3260;BME280;68938;48.150;14.004;2024-01-25T03:28:08;98858.22;;;11.04;57.86
3260;BME280;68938;48.150;14.004;2024-01-25T03:30:35;98856.72;;;10.94;58.46
3260;BME280;68938;48.150;14.004;2024-01-25T03:33:02;98855.47;;;10.70;59.11
3260;BME280;68938;48.150;14.004;2024-01-25T03:35:29;98856.88;;;10.87;58.61
3260;BME280;68938;48.150;14.004;2024-01-25T03:37:56;98857.66;;;10.91;58.67
3260;BME280;68938;48.150;14.004;2024-01-25T03:40:23;98854.56;;;10.74;59.40
3260;BME280;68938;48.150;14.004;2024-01-25T03:42:50;98862.22;;;11.19;58.10
3260;BME280;68938;48.150;14.004;2024-01-25T03:45:37;98856.72;;;10.94;58.31
3260;BME280;68938;48.150;14.004;2024-01-25T03:48:04;98859.25;;;10.97;58.87
3260;BME280;68938;48.150;14.004;2024-01-25T03:50:31;98860.00;;;11.02;58.25
3260;BME280;68938;48.150;14.004;2024-01-25T03:52:58;98861.69;;;11.04;58.34
3260;BME280;68938;48.150;14.004;2024-01-25T03:55:25;98864.09;;;11.10;58.27
3260;BME280;68938;48.150;14.004;2024-01-25T03:57:52;98865.34;;;11.33;57.31
3260;BME280;68938;48.150;14.004;2024-01-25T04:00:19;98864.28;;;11.43;57.22
3260;BME280;68938;48.150;14.004;2024-01-25T04:02:46;98857.69;;;11.70;56.48
3260;BME280;68938;48.150;14.004;2024-01-25T04:05:14;98857.47;;;11.41;57.33
3260;BME280;68938;48.150;14.004;2024-01-25T04:07:40;98863.13;;;11.16;57.91
3260;BME280;68938;48.150;14.004;2024-01-25T04:10:08;98860.53;;;11.18;58.29
3260;BME280;68938;48.150;14.004;2024-01-25T04:12:35;98868.81;;;11.32;58.02
3260;BME280;68938;48.150;14.004;2024-01-25T04:15:02;98867.75;;;10.99;58.97
3260;BME280;68938;48.150;14.004;2024-01-25T04:17:29;98849.56;;;11.09;58.68
3260;BME280;68938;48.150;14.004;2024-01-25T04:19:56;98859.91;;;11.08;59.26
3260;BME280;68938;48.150;14.004;2024-01-25T04:22:23;98857.19;;;11.14;59.36
3260;BME280;68938;48.150;14.004;2024-01-25T04:24:50;98862.97;;;11.25;58.69
3260;BME280;68938;48.150;14.004;2024-01-25T04:27:17;98858.72;;;11.23;59.57
3260;BME280;68938;48.150;14.004;2024-01-25T04:29:44;98862.69;;;11.37;59.08
3260;BME280;68938;48.150;14.004;2024-01-25T04:32:12;98857.75;;;11.28;59.67
3260;BME280;68938;48.150;14.004;2024-01-25T04:34:39;98863.69;;;11.30;58.96
3260;BME280;68938;48.150;14.004;2024-01-25T04:37:06;98853.16;;;11.43;58.99
3260;BME280;68938;48.150;14.004;2024-01-25T04:39:33;98857.44;;;11.79;57.90
3260;BME280;68938;48.150;14.004;2024-01-25T04:42:00;98859.66;;;11.59;58.24
3260;BME280;68938;48.150;14.004;2024-01-25T04:44:27;98860.56;;;11.56;58.32
3260;BME280;68938;48.150;14.004;2024-01-25T04:46:54;98876.66;;;11.65;58.92
3260;BME280;68938;48.150;14.004;2024-01-25T04:49:20;98881.91;;;11.60;59.28
3260;BME280;68938;48.150;14.004;2024-01-25T04:51:48;98883.88;;;11.49;60.30
3260;BME280;68938;48.150;14.004;2024-01-25T04:54:15;98887.09;;;11.57;60.21
3260;BME280;68938;48.150;14.004;2024-01-25T04:56:43;98887.50;;;11.77;59.83
3260;BME280;68938;48.150;14.004;2024-01-25T04:59:10;98896.34;;;11.25;61.30
3260;BME280;68938;48.150;14.004;2024-01-25T05:01:37;98895.84;;;10.61;64.53
3260;BME280;68938;48.150;14.004;2024-01-25T05:04:04;98899.72;;;10.34;65.24
3260;BME280;68938;48.150;14.004;2024-01-25T05:06:31;98892.56;;;9.97;65.96
3260;BME280;68938;48.150;14.004;2024-01-25T05:08:58;98901.75;;;9.54;67.37
3260;BME280;68938;48.150;14.004;2024-01-25T05:11:25;98902.75;;;9.42;68.02
3260;BME280;68938;48.150;14.004;2024-01-25T05:13:52;98908.69;;;9.47;68.55
3260;BME280;68938;48.150;14.004;2024-01-25T05:16:19;98903.47;;;9.53;69.00
3260;BME280;68938;48.150;14.004;2024-01-25T05:18:46;98904.66;;;9.89;68.30
3260;BME280;68938;48.150;14.004;2024-01-25T05:21:13;98913.16;;;9.93;67.68
3260;BME280;68938;48.150;14.004;2024-01-25T05:23:40;98909.47;;;10.11;67.24
3260;BME280;68938;48.150;14.004;2024-01-25T05:26:06;98908.75;;;10.55;65.46
3260;BME280;68938;48.150;14.004;2024-01-25T05:28:33;98913.38;;;10.36;65.18
3260;BME280;68938;48.150;14.004;2024-01-25T05:31:00;98918.31;;;10.46;65.45
3260;BME280;68938;48.150;14.004;2024-01-25T05:33:30;98910.53;;;10.52;65.46
3260;BME280;68938;48.150;14.004;2024-01-25T05:35:57;98919.81;;;10.59;64.72
3260;BME280;68938;48.150;14.004;2024-01-25T05:38:24;98922.59;;;10.47;65.01
3260;BME280;68938;48.150;14.004;2024-01-25T05:40:51;98927.16;;;10.79;64.41
3260;BME280;68938;48.150;14.004;2024-01-25T05:43:19;98928.31;;;10.62;64.90
3260;BME280;68938;48.150;14.004;2024-01-25T05:45:46;98926.81;;;10.51;64.44
3260;BME280;68938;48.150;14.004;2024-01-25T05:48:13;98929.50;;;10.43;65.49
3260;BME280;68938;48.150;14.004;2024-01-25T05:50:40;98921.41;;;10.12;65.87
3260;BME280;68938;48.150;14.004;2024-01-25T05:53:07;98926.66;;;10.04;65.90
3260;BME280;68938;48.150;14.004;2024-01-25T05:55:33;98918.13;;;10.05;65.21
3260;BME280;68938;48.150;14.004;2024-01-25T05:58:01;98916.19;;;10.18;64.29
3260;BME280;68938;48.150;14.004;2024-01-25T06:00:28;98923.72;;;10.29;64.14
3260;BME280;68938;48.150;14.004;2024-01-25T06:02:55;98922.84;;;10.31;64.07
3260;BME280;68938;48.150;14.004;2024-01-25T06:05:22;98914.53;;;10.14;64.82
3260;BME280;68938;48.150;14.004;2024-01-25T06:07:49;98909.19;;;10.31;64.52
3260;BME280;68938;48.150;14.004;2024-01-25T06:10:17;98901.94;;;10.54;63.79
3260;BME280;68938;48.150;14.004;2024-01-25T06:12:44;98901.34;;;10.38;64.38
3260;BME280;68938;48.150;14.004;2024-01-25T06:15:11;98911.19;;;10.10;64.39
3260;BME280;68938;48.150;14.004;2024-01-25T06:17:37;98915.19;;;10.28;64.44
3260;BME280;68938;48.150;14.004;2024-01-25T06:20:05;98918.50;;;10.35;63.76
3260;BME280;68938;48.150;14.004;2024-01-25T06:22:32;98918.28;;;9.93;64.99
3260;BME280;68938;48.150;14.004;2024-01-25T06:24:59;98908.00;;;9.94;65.18
3260;BME280;68938;48.150;14.004;2024-01-25T06:27:27;98907.94;;;9.97;64.69
3260;BME280;68938;48.150;14.004;2024-01-25T06:29:53;98919.91;;;9.99;64.22
3260;BME280;68938;48.150;14.004;2024-01-25T06:32:20;98936.13;;;9.99;64.51
3260;BME280;68938;48.150;14.004;2024-01-25T06:34:52;98917.16;;;10.11;63.91
3260;BME280;68938;48.150;14.004;2024-01-25T06:37:19;98915.09;;;10.36;63.20
3260;BME280;68938;48.150;14.004;2024-01-25T06:39:46;98928.50;;;10.52;62.32
3260;BME280;68938;48.150;14.004;2024-01-25T06:42:13;98927.16;;;10.79;60.92
3260;BME280;68938;48.150;14.004;2024-01-25T06:44:40;98940.63;;;10.43;61.71
3260;BME280;68938;48.150;14.004;2024-01-25T06:47:07;98940.84;;;10.30;62.29
3260;BME280;68938;48.150;14.004;2024-01-25T06:49:34;98937.28;;;10.37;62.68
3260;BME280;68938;48.150;14.004;2024-01-25T06:52:01;98932.06;;;10.43;62.22
3260;BME280;68938;48.150;14.004;2024-01-25T06:54:28;98920.09;;;10.42;61.68
3260;BME280;68938;48.150;14.004;2024-01-25T06:56:56;98928.75;;;10.36;61.73
3260;BME280;68938;48.150;14.004;2024-01-25T06:59:22;98938.97;;;10.39;62.07
3260;BME280;68938;48.150;14.004;2024-01-25T07:01:50;98929.75;;;10.28;62.01
3260;BME280;68938;48.150;14.004;2024-01-25T07:04:17;98923.16;;;10.10;62.30
3260;BME280;68938;48.150;14.004;2024-01-25T07:06:45;98933.56;;;9.99;62.30
3260;BME280;68938;48.150;14.004;2024-01-25T07:09:12;98955.56;;;10.14;62.11
3260;BME280;68938;48.150;14.004;2024-01-25T07:11:39;98975.88;;;10.29;61.93
3260;BME280;68938;48.150;14.004;2024-01-25T07:14:06;98994.31;;;10.54;60.81
3260;BME280;68938;48.150;14.004;2024-01-25T07:16:33;99007.25;;;10.47;61.09
3260;BME280;68938;48.150;14.004;2024-01-25T07:19:00;98996.03;;;10.54;60.86
3260;BME280;68938;48.150;14.004;2024-01-25T07:21:27;98985.22;;;10.32;61.04
3260;BME280;68938;48.150;14.004;2024-01-25T07:23:54;98989.31;;;10.45;61.13
3260;BME280;68938;48.150;14.004;2024-01-25T07:26:21;99006.75;;;10.18;61.77
3260;BME280;68938;48.150;14.004;2024-01-25T07:28:48;99003.41;;;10.15;62.56
3260;BME280;68938;48.150;14.004;2024-01-25T07:31:16;99014.56;;;10.11;61.75
3260;BME280;68938;48.150;14.004;2024-01-25T07:33:43;99022.97;;;10.20;61.51
3260;BME280;68938;48.150;14.004;2024-01-25T07:36:10;99023.78;;;10.24;60.97
3260;BME280;68938;48.150;14.004;2024-01-25T07:38:37;99019.66;;;10.15;60.78
3260;BME280;68938;48.150;14.004;2024-01-25T07:41:04;99027.09;;;10.32;61.48
3260;BME280;68938;48.150;14.004;2024-01-25T07:43:31;99023.69;;;10.33;60.49
3260;BME280;68938;48.150;14.004;2024-01-25T07:45:58;99032.34;;;10.26;60.53
3260;BME280;68938;48.150;14.004;2024-01-25T07:48:25;99034.88;;;10.25;60.87
3260;BME280;68938;48.150;14.004;2024-01-25T07:50:52;99052.22;;;10.07;60.61
3260;BME280;68938;48.150;14.004;2024-01-25T07:53:19;99067.94;;;10.48;59.89
3260;BME280;68938;48.150;14.004;2024-01-25T07:55:46;99057.00;;;10.35;60.39
3260;BME280;68938;48.150;14.004;2024-01-25T07:58:15;99066.22;;;10.48;59.83
3260;BME280;68938;48.150;14.004;2024-01-25T08:00:42;99060.91;;;10.59;59.29
3260;BME280;68938;48.150;14.004;2024-01-25T08:03:09;99058.84;;;10.27;60.38
3260;BME280;68938;48.150;14.004;2024-01-25T08:05:36;99053.75;;;10.20;60.62
3260;BME280;68938;48.150;14.004;2024-01-25T08:08:13;99077.50;;;10.35;59.83
3260;BME280;68938;48.150;14.004;2024-01-25T08:10:41;99074.91;;;10.38;59.05
3260;BME280;68938;48.150;14.004;2024-01-25T08:13:08;99073.66;;;10.65;58.96
3260;BME280;68938;48.150;14.004;2024-01-25T08:15:35;99079.16;;;10.96;57.77
3260;BME280;68938;48.150;14.004;2024-01-25T08:18:02;99088.31;;;11.11;57.58
3260;BME280;68938;48.150;14.004;2024-01-25T08:20:31;99094.72;;;10.85;57.91
3260;BME280;68938;48.150;14.004;2024-01-25T08:22:58;99106.50;;;10.99;57.56
3260;BME280;68938;48.150;14.004;2024-01-25T08:25:25;99106.13;;;11.22;57.27
3260;BME280;68938;48.150;14.004;2024-01-25T08:27:52;99105.88;;;11.37;55.88
3260;BME280;68938;48.150;14.004;2024-01-25T08:30:19;99117.78;;;11.41;55.61
3260;BME280;68938;48.150;14.004;2024-01-25T08:32:46;99105.41;;;11.13;55.38
3260;BME280;68938;48.150;14.004;2024-01-25T08:35:13;99104.81;;;10.96;55.67
3260;BME280;68938;48.150;14.004;2024-01-25T08:37:40;99101.56;;;11.37;55.66
3260;BME280;68938;48.150;14.004;2024-01-25T08:40:07;99096.38;;;11.41;54.57
3260;BME280;68938;48.150;14.004;2024-01-25T08:42:35;99097.22;;;11.41;54.71
3260;BME280;68938;48.150;14.004;2024-01-25T08:45:03;99099.53;;;11.56;53.74
3260;BME280;68938;48.150;14.004;2024-01-25T08:47:30;99097.50;;;11.26;54.29
3260;BME280;68938;48.150;14.004;2024-01-25T08:49:57;99099.28;;;11.22;54.40
3260;BME280;68938;48.150;14.004;2024-01-25T08:52:24;99100.81;;;11.31;54.45
3260;BME280;68938;48.150;14.004;2024-01-25T08:54:51;99101.78;;;11.25;53.95
3260;BME280;68938;48.150;14.004;2024-01-25T08:57:18;99111.13;;;11.29;54.65
3260;BME280;68938;48.150;14.004;2024-01-25T08:59:45;99103.09;;;11.48;54.42
3260;BME280;68938;48.150;14.004;2024-01-25T09:02:12;99109.25;;;10.88;55.75
3260;BME280;68938;48.150;14.004;2024-01-25T09:04:39;99114.16;;;11.02;55.59
3260;BME280;68938;48.150;14.004;2024-01-25T09:07:06;99118.00;;;11.27;54.89
3260;BME280;68938;48.150;14.004;2024-01-25T09:09:33;99110.94;;;11.40;54.40
3260;BME280;68938;48.150;14.004;2024-01-25T09:12:02;99132.44;;;11.36;54.15
3260;BME280;68938;48.150;14.004;2024-01-25T09:14:29;99136.72;;;11.35;54.08
3260;BME280;68938;48.150;14.004;2024-01-25T09:16:56;99146.78;;;11.48;53.94
3260;BME280;68938;48.150;14.004;2024-01-25T09:19:23;99147.66;;;11.47;53.43
3260;BME280;68938;48.150;14.004;2024-01-25T09:21:50;99159.09;;;11.27;53.16
3260;BME280;68938;48.150;14.004;2024-01-25T09:24:17;99165.75;;;11.41;53.27
3260;BME280;68938;48.150;14.004;2024-01-25T09:26:44;99165.16;;;11.25;53.53
3260;BME280;68938;48.150;14.004;2024-01-25T09:29:11;99171.91;;;11.30;53.84
3260;BME280;68938;48.150;14.004;2024-01-25T09:31:39;99166.91;;;11.23;53.79
3260;BME280;68938;48.150;14.004;2024-01-25T09:34:06;99174.31;;;11.39;53.63
3260;BME280;68938;48.150;14.004;2024-01-25T09:36:33;99181.69;;;11.07;54.34
3260;BME280;68938;48.150;14.004;2024-01-25T09:39:01;99190.47;;;10.92;53.90
3260;BME280;68938;48.150;14.004;2024-01-25T09:41:27;99191.09;;;11.08;54.03
3260;BME280;68938;48.150;14.004;2024-01-25T09:43:54;99195.94;;;11.26;53.84
3260;BME280;68938;48.150;14.004;2024-01-25T09:46:23;99186.84;;;11.05;53.82
3260;BME280;68938;48.150;14.004;2024-01-25T09:48:50;99193.84;;;10.96;54.31
3260;BME280;68938;48.150;14.004;2024-01-25T09:51:17;99186.78;;;11.10;53.92
3260;BME280;68938;48.150;14.004;2024-01-25T09:53:45;99198.03;;;11.01;53.34
3260;BME280;68938;48.150;14.004;2024-01-25T09:56:19;99202.38;;;10.96;53.50
3260;BME280;68938;48.150;14.004;2024-01-25T09:58:47;99202.00;;;11.21;53.47
3260;BME280;68938;48.150;14.004;2024-01-25T10:01:15;99203.88;;;11.11;51.98
3260;BME280;68938;48.150;14.004;2024-01-25T10:03:43;99191.13;;;11.05;52.56
3260;BME280;68938;48.150;14.004;2024-01-25T10:06:14;99198.69;;;11.14;52.61
3260;BME280;68938;48.150;14.004;2024-01-25T10:08:44;99192.56;;;11.23;52.48
3260;BME280;68938;48.150;14.004;2024-01-25T10:11:11;99200.22;;;11.26;52.13
3260;BME280;68938;48.150;14.004;2024-01-25T10:13:42;99199.56;;;11.13;52.61
3260;BME280;68938;48.150;14.004;2024-01-25T10:16:14;99179.47;;;10.82;53.70
3260;BME280;68938;48.150;14.004;2024-01-25T10:18:43;99178.81;;;10.66;53.97
3260;BME280;68938;48.150;14.004;2024-01-25T10:21:13;99164.50;;;10.52;54.37
3260;BME280;68938;48.150;14.004;2024-01-25T10:23:44;99173.06;;;10.49;55.43
3260;BME280;68938;48.150;14.004;2024-01-25T10:26:12;99157.94;;;10.93;54.74
3260;BME280;68938;48.150;14.004;2024-01-25T10:28:40;99163.31;;;10.76;54.28
3260;BME280;68938;48.150;14.004;2024-01-25T10:31:07;99162.06;;;11.04;53.61
3260;BME280;68938;48.150;14.004;2024-01-25T10:33:35;99159.19;;;11.21;52.48
3260;BME280;68938;48.150;14.004;2024-01-25T10:36:08;99147.22;;;11.22;52.27
3260;BME280;68938;48.150;14.004;2024-01-25T10:38:35;99134.78;;;11.48;52.39
3260;BME280;68938;48.150;14.004;2024-01-25T10:41:05;99144.16;;;11.51;52.09
3260;BME280;68938;48.150;14.004;2024-01-25T10:43:33;99130.66;;;10.85;53.26
3260;BME280;68938;48.150;14.004;2024-01-25T10:46:02;99135.88;;;10.81;53.35
3260;BME280;68938;48.150;14.004;2024-01-25T10:48:31;99130.63;;;10.88;52.80
3260;BME280;68938;48.150;14.004;2024-01-25T10:50:59;99136.31;;;11.09;53.44
3260;BME280;68938;48.150;14.004;2024-01-25T10:53:27;99130.00;;;11.28;52.78
3260;BME280;68938;48.150;14.004;2024-01-25T10:55:57;99137.09;;;11.62;52.43
3260;BME280;68938;48.150;14.004;2024-01-25T10:58:24;99141.72;;;11.42;51.43
3260;BME280;68938;48.150;14.004;2024-01-25T11:01:00;99145.41;;;11.27;53.05
3260;BME280;68938;48.150;14.004;2024-01-25T11:03:28;99150.41;;;11.34;51.92
3260;BME280;68938;48.150;14.004;2024-01-25T11:06:06;99148.16;;;11.66;50.43
3260;BME280;68938;48.150;14.004;2024-01-25T11:08:35;99140.03;;;11.42;50.64
3260;BME280;68938;48.150;14.004;2024-01-25T11:11:04;99141.88;;;11.34;49.97
3260;BME280;68938;48.150;14.004;2024-01-25T11:13:32;99139.16;;;11.42;49.67
3260;BME280;68938;48.150;14.004;2024-01-25T11:16:15;99144.66;;;11.71;49.46
3260;BME280;68938;48.150;14.004;2024-01-25T11:18:56;99140.84;;;11.44;49.21
3260;BME280;68938;48.150;14.004;2024-01-25T11:21:26;99136.81;;;11.29;49.73
3260;BME280;68938;48.150;14.004;2024-01-25T11:24:01;99136.91;;;11.25;49.12
3260;BME280;68938;48.150;14.004;2024-01-25T11:26:31;99144.56;;;11.26;49.60
3260;BME280;68938;48.150;14.004;2024-01-25T11:28:59;99141.38;;;11.63;48.66
3260;BME280;68938;48.150;14.004;2024-01-25T11:31:27;99154.19;;;11.15;49.62
3260;BME280;68938;48.150;14.004;2024-01-25T11:33:58;99147.59;;;10.97;49.14
3260;BME280;68938;48.150;14.004;2024-01-25T11:36:28;99149.81;;;10.61;50.03
3260;BME280;68938;48.150;14.004;2024-01-25T11:38:55;99143.00;;;10.59;49.64
3260;BME280;68938;48.150;14.004;2024-01-25T11:41:22;99147.78;;;10.83;49.42
3260;BME280;68938;48.150;14.004;2024-01-25T11:43:49;99150.59;;;10.68;48.65
3260;BME280;68938;48.150;14.004;2024-01-25T11:46:17;99156.09;;;11.02;49.00
3260;BME280;68938;48.150;14.004;2024-01-25T11:48:44;99149.03;;;11.15;48.65
3260;BME280;68938;48.150;14.004;2024-01-25T11:51:12;99137.75;;;11.25;49.14
3260;BME280;68938;48.150;14.004;2024-01-25T11:53:40;99145.03;;;10.97;49.37
3260;BME280;68938;48.150;14.004;2024-01-25T11:56:14;99135.06;;;10.77;49.85
3260;BME280;68938;48.150;14.004;2024-01-25T11:58:46;99132.13;;;11.00;49.67
3260;BME280;68938;48.150;14.004;2024-01-25T12:01:14;99131.63;;;11.32;49.65
3260;BME280;68938;48.150;14.004;2024-01-25T12:03:42;99126.31;;;11.42;49.78
3260;BME280;68938;48.150;14.004;2024-01-25T12:06:09;99125.72;;;11.29;49.13
3260;BME280;68938;48.150;14.004;2024-01-25T12:08:37;99116.38;;;11.25;49.38
3260;BME280;68938;48.150;14.004;2024-01-25T12:11:08;99123.31;;;11.18;49.72
3260;BME280;68938;48.150;14.004;2024-01-25T12:13:40;99125.06;;;11.16;49.58
3260;BME280;68938;48.150;14.004;2024-01-25T12:16:11;99110.34;;;11.24;49.63
3260;BME280;68938;48.150;14.004;2024-01-25T12:18:42;99120.19;;;11.50;50.01
3260;BME280;68938;48.150;14.004;2024-01-25T12:21:10;99121.13;;;11.45;49.69
3260;BME280;68938;48.150;14.004;2024-01-25T12:23:38;99110.66;;;11.55;49.74
3260;BME280;68938;48.150;14.004;2024-01-25T12:26:08;99105.22;;;11.72;49.44
3260;BME280;68938;48.150;14.004;2024-01-25T12:28:39;99111.72;;;11.93;48.75
3260;BME280;68938;48.150;14.004;2024-01-25T12:31:08;99106.97;;;12.15;48.44
3260;BME280;68938;48.150;14.004;2024-01-25T12:33:35;99119.78;;;12.18;47.80
3260;BME280;68938;48.150;14.004;2024-01-25T12:36:03;99115.81;;;12.02;48.75
3260;BME280;68938;48.150;14.004;2024-01-25T12:38:31;99114.91;;;12.04;48.62
3260;BME280;68938;48.150;14.004;2024-01-25T12:40:58;99112.91;;;12.19;48.07
3260;BME280;68938;48.150;14.004;2024-01-25T12:43:26;99107.19;;;12.04;47.87
3260;BME280;68938;48.150;14.004;2024-01-25T12:45:53;99107.59;;;12.26;48.06
3260;BME280;68938;48.150;14.004;2024-01-25T12:48:29;99106.53;;;11.95;47.60
3260;BME280;68938;48.150;14.004;2024-01-25T12:50:56;99112.75;;;11.81;49.12
3260;BME280;68938;48.150;14.004;2024-01-25T12:53:24;99112.13;;;11.70;48.49
3260;BME280;68938;48.150;14.004;2024-01-25T12:55:51;99103.59;;;11.68;48.02
3260;BME280;68938;48.150;14.004;2024-01-25T12:58:18;99105.16;;;11.75;47.34
3260;BME280;68938;48.150;14.004;2024-01-25T13:00:45;99104.19;;;11.34;48.88
3260;BME280;68938;48.150;14.004;2024-01-25T13:03:13;99101.16;;;11.60;48.36